createdAt,value
2022-12-01T00:04:11.414Z,102372.09
2022-12-01T00:09:26.998Z,102367.31
2022-12-01T00:14:42.065Z,102365.78
2022-12-01T00:19:57.023Z,102371.03
2022-12-01T00:25:12.116Z,102369.53
2022-12-01T00:30:27.453Z,102358.09
2022-12-01T00:35:43.011Z,102362.09
2022-12-01T00:40:58.252Z,102359.84
2022-12-01T00:46:14.144Z,102357.53
2022-12-01T00:51:29.323Z,102360.31
2022-12-01T00:56:45.368Z,102357.53
2022-12-01T01:02:01.375Z,102361.50
2022-12-01T01:07:17.120Z,102364.78
2022-12-01T01:12:32.326Z,102369.09
2022-12-01T01:17:48.082Z,102368.34
2022-12-01T01:23:03.064Z,102374.50
2022-12-01T01:28:18.377Z,102379.28
2022-12-01T01:33:34.343Z,102379.75
2022-12-01T01:38:50.107Z,102387.81
2022-12-01T01:44:05.060Z,102382.25
2022-12-01T01:49:20.335Z,102386.25
2022-12-01T01:54:36.439Z,102390.59
2022-12-01T01:59:52.077Z,102391.06
2022-12-01T02:05:07.207Z,102393.06
2022-12-01T02:10:22.568Z,102391.53
2022-12-01T02:15:37.839Z,102395.06
2022-12-01T02:20:53.034Z,102393.53
2022-12-01T02:26:07.833Z,102383.19
2022-12-01T02:31:23.101Z,102379.63
2022-12-01T02:36:38.060Z,102381.69
2022-12-01T02:41:53.072Z,102379.38
2022-12-01T02:47:08.031Z,102376.59
2022-12-01T02:52:23.036Z,102374.56
2022-12-01T02:57:38.138Z,102376.59
2022-12-01T03:02:53.169Z,102386.13
2022-12-01T03:08:08.074Z,102390.94
2022-12-01T03:13:23.065Z,102390.16
2022-12-01T03:18:38.330Z,102390.66
2022-12-01T03:23:54.026Z,102379.53
2022-12-01T03:29:09.268Z,102368.41
2022-12-01T03:34:25.123Z,102376.25
2022-12-01T03:39:40.346Z,102374.75
2022-12-01T03:44:56.483Z,102379.03
2022-12-01T03:50:12.019Z,102390.16
2022-12-01T03:55:27.071Z,102395.25
2022-12-01T04:00:42.063Z,102394.47
2022-12-01T04:05:57.082Z,102391.69
2022-12-01T04:11:12.093Z,102388.47
2022-12-01T04:16:27.128Z,102390.75
2022-12-01T04:21:42.334Z,102386.72
2022-12-01T04:26:58.077Z,102391.53
2022-12-01T04:32:13.030Z,102387.81
2022-12-01T04:37:28.051Z,102394.69
2022-12-01T04:42:43.413Z,102391.19
2022-12-01T04:47:59.134Z,102394.88
2022-12-01T04:53:14.338Z,102390.00
2022-12-01T04:58:30.165Z,102390.66
2022-12-01T05:03:45.361Z,102387.56
2022-12-01T05:09:01.125Z,102387.75
2022-12-01T05:14:16.105Z,102400.59
2022-12-01T05:19:31.453Z,102398.72
2022-12-01T05:24:47.049Z,102389.81
2022-12-01T05:30:02.087Z,102394.78
2022-12-01T05:35:17.385Z,102396.53
2022-12-01T05:40:33.081Z,102394.72
2022-12-01T05:45:48.460Z,102401.66
2022-12-01T05:51:04.036Z,102397.84
2022-12-01T05:56:19.413Z,102399.53
2022-12-01T06:01:35.095Z,102408.06
2022-12-01T06:06:50.021Z,102407.72
2022-12-01T06:12:05.047Z,102410.22
2022-12-01T06:17:20.398Z,102410.69
2022-12-01T06:22:36.102Z,102408.84
2022-12-01T06:27:51.106Z,102416.41
2022-12-01T06:33:06.075Z,102406.53
2022-12-01T06:38:21.142Z,102397.47
2022-12-01T06:43:36.445Z,102399.94
2022-12-01T06:48:52.105Z,102399.75
2022-12-01T06:54:07.443Z,102409.63
2022-12-01T06:59:23.360Z,102416.41
2022-12-01T07:04:39.067Z,102421.69
2022-12-01T07:09:54.056Z,102433.25
2022-12-01T07:15:09.047Z,102438.03
2022-12-01T07:20:23.862Z,102440.81
2022-12-01T07:25:39.580Z,102445.59
2022-12-01T07:30:55.088Z,102446.88
2022-12-01T07:36:10.109Z,102442.41
2022-12-01T07:41:25.043Z,102442.53
2022-12-01T07:46:40.126Z,102458.41
2022-12-01T07:51:55.132Z,102457.19
2022-12-01T07:57:10.091Z,102465.22
2022-12-01T08:02:25.145Z,102462.44
2022-12-01T08:07:40.148Z,102470.31
2022-12-01T08:12:55.451Z,102475.09
2022-12-01T08:18:11.131Z,102479.09
2022-12-01T08:23:26.287Z,102488.53
2022-12-01T08:28:42.099Z,102477.44
2022-12-01T08:33:57.497Z,102485.25
2022-12-01T08:39:13.176Z,102480.47
2022-12-01T08:44:28.144Z,102486.81
2022-12-01T08:49:43.059Z,102501.47
2022-12-01T08:54:58.096Z,102502.25
2022-12-01T09:00:13.087Z,102502.25
2022-12-01T09:05:28.453Z,102502.25
2022-12-01T09:10:43.850Z,102496.69
2022-12-01T09:15:59.250Z,102507.31
2022-12-01T09:21:14.140Z,102499.47
2022-12-01T09:26:29.067Z,102499.47
2022-12-01T09:31:44.153Z,102498.97
2022-12-01T09:36:58.868Z,102494.53
2022-12-01T09:42:14.096Z,102484.91
2022-12-01T09:47:29.144Z,102486.47
2022-12-01T09:52:44.062Z,102493.09
2022-12-01T09:57:59.106Z,102490.31
2022-12-01T10:03:14.431Z,102483.50
2022-12-01T10:08:30.071Z,102482.72
2022-12-01T10:13:45.111Z,102477.94
2022-12-01T10:18:59.856Z,102472.38
2022-12-01T10:24:15.088Z,102463.78
2022-12-01T10:29:30.091Z,102466.81
2022-12-01T10:34:45.154Z,102469.34
2022-12-01T10:40:00.094Z,102477.84
2022-12-01T10:45:15.126Z,102472.16
2022-12-01T10:50:30.095Z,102467.53
2022-12-01T10:55:48.055Z,102467.84
2022-12-01T11:01:03.235Z,102465.81
2022-12-01T11:06:18.062Z,102470.16
2022-12-01T11:11:33.106Z,102464.59
2022-12-01T11:16:48.186Z,102462.09
2022-12-01T11:22:03.077Z,102455.78
2022-12-01T11:27:17.880Z,102460.06
2022-12-01T11:32:33.806Z,102443.13
2022-12-01T11:38:13.095Z,102432.03
2022-12-01T11:43:24.443Z,102435.09
2022-12-01T11:48:40.124Z,102422.72
2022-12-01T11:53:55.120Z,102421.81
2022-12-01T11:59:09.858Z,102406.63
2022-12-01T12:04:25.063Z,102406.25
2022-12-01T12:09:44.883Z,102405.31
2022-12-01T12:15:00.150Z,102401.59
2022-12-01T12:20:15.251Z,102396.31
2022-12-01T12:25:31.058Z,102402.31
2022-12-01T12:30:46.189Z,102397.53
2022-12-01T12:36:01.564Z,102387.94
2022-12-01T12:41:17.069Z,102395.31
2022-12-01T12:46:32.176Z,102390.34
2022-12-01T12:51:49.130Z,102388.66
2022-12-01T12:57:04.179Z,102382.91
2022-12-01T13:02:19.159Z,102386.72
2022-12-01T13:07:34.189Z,102380.69
2022-12-01T13:12:49.081Z,102382.25
2022-12-01T13:18:04.142Z,102388.09
2022-12-01T13:23:19.059Z,102378.78
2022-12-01T13:28:34.204Z,102372.75
2022-12-01T13:34:27.129Z,102362.41
2022-12-01T13:39:42.092Z,102365.19
2022-12-01T13:44:57.089Z,102366.75
2022-12-01T13:50:12.120Z,102366.75
2022-12-01T13:55:27.080Z,102359.63
2022-12-01T14:00:42.546Z,102362.41
2022-12-01T14:05:57.831Z,102354.84
2022-12-01T14:11:13.435Z,102368.44
2022-12-01T14:16:29.213Z,102369.97
2022-12-01T14:21:44.066Z,102373.22
2022-12-01T14:26:59.150Z,102364.41
2022-12-01T14:32:14.125Z,102355.31
2022-12-01T14:37:29.104Z,102361.19
2022-12-01T14:42:44.114Z,102362.88
2022-12-01T14:47:59.124Z,102367.66
2022-12-01T14:53:14.084Z,102372.97
2022-12-01T14:58:29.130Z,102377.28
2022-12-01T15:03:44.207Z,102368.34
2022-12-01T15:09:31.628Z,102368.03
2022-12-01T15:14:33.874Z,102371.47
2022-12-01T15:19:49.480Z,102370.91
2022-12-01T15:25:05.476Z,102366.75
2022-12-01T15:30:21.598Z,102364.94
2022-12-01T15:35:37.145Z,102361.56
2022-12-01T15:41:21.095Z,102358.22
2022-12-01T15:46:27.190Z,102364.72
2022-12-01T15:51:42.431Z,102371.97
2022-12-01T15:56:58.453Z,102366.59
2022-12-01T16:02:14.122Z,102360.00
2022-12-01T16:07:50.224Z,102375.13
2022-12-01T16:13:04.056Z,102375.63
2022-12-01T16:18:19.438Z,102388.41
2022-12-01T16:23:35.129Z,102381.31
2022-12-01T16:28:50.132Z,102379.03
2022-12-01T16:34:18.426Z,102378.69
2022-12-01T16:39:39.934Z,102368.81
2022-12-01T16:44:55.138Z,102367.31
2022-12-01T16:50:10.022Z,102377.66
2022-12-01T16:55:25.469Z,102363.00
2022-12-01T17:00:41.133Z,102371.81
2022-12-01T17:05:56.105Z,102370.28
2022-12-01T17:11:12.416Z,102374.75
2022-12-01T17:16:28.248Z,102364.88
2022-12-01T17:21:43.448Z,102362.09
2022-12-01T17:26:59.123Z,102374.47
2022-12-01T17:32:14.141Z,102373.41
2022-12-01T17:37:29.058Z,102369.84
2022-12-01T17:42:48.730Z,102374.66
2022-12-01T17:48:06.123Z,102373.88
2022-12-01T17:53:21.111Z,102375.09
2022-12-01T17:58:36.119Z,102372.78
2022-12-01T18:03:51.098Z,102368.00
2022-12-01T18:09:05.884Z,102363.69
2022-12-01T18:14:21.100Z,102367.72
2022-12-01T18:19:36.482Z,102364.19
2022-12-01T18:24:52.603Z,102376.53
2022-12-01T18:30:08.147Z,102365.41
2022-12-01T18:35:26.296Z,102366.66
2022-12-01T18:40:45.132Z,102364.34
2022-12-01T18:46:00.334Z,102358.03
2022-12-01T18:51:16.123Z,102364.03
2022-12-01T18:56:31.119Z,102367.59
2022-12-01T19:01:46.219Z,102358.97
2022-12-01T19:07:01.113Z,102361.75
2022-12-01T19:12:17.469Z,102365.00
2022-12-01T19:17:33.178Z,102364.25
2022-12-01T19:22:48.342Z,102368.22
2022-12-01T19:28:04.097Z,102360.16
2022-12-01T19:33:19.096Z,102365.00
2022-12-01T19:38:34.180Z,102365.16
2022-12-01T19:43:49.168Z,102370.19
2022-12-01T19:49:03.879Z,102364.50
2022-12-01T19:54:19.109Z,102366.31
2022-12-01T19:59:33.980Z,102363.53
2022-12-01T20:04:50.402Z,102370.91
2022-12-01T20:10:06.108Z,102364.16
2022-12-01T20:15:20.887Z,102365.34
2022-12-01T20:20:36.150Z,102362.13
2022-12-01T20:25:51.163Z,102369.50
2022-12-01T20:31:06.124Z,102360.88
2022-12-01T20:36:21.175Z,102366.41
2022-12-01T20:41:36.164Z,102363.19
2022-12-01T20:46:52.499Z,102362.91
2022-12-01T20:52:08.152Z,102370.47
2022-12-01T20:57:23.188Z,102364.91
2022-12-01T21:02:38.196Z,102365.19
2022-12-01T21:07:53.268Z,102349.28
2022-12-01T21:13:08.077Z,102355.59
2022-12-01T21:18:22.904Z,102347.88
2022-12-01T21:23:38.162Z,102337.03
2022-12-01T21:28:53.177Z,102337.31
2022-12-01T21:34:08.435Z,102343.94
2022-12-01T21:39:24.142Z,102329.59
2022-12-01T21:44:39.168Z,102319.50
2022-12-01T21:49:54.167Z,102315.47
2022-12-01T21:55:09.173Z,102313.81
2022-12-01T22:00:24.160Z,102312.81
2022-12-01T22:05:39.122Z,102311.59
2022-12-01T22:10:54.117Z,102319.41
2022-12-01T22:16:09.486Z,102316.66
2022-12-01T22:21:25.287Z,102317.41
2022-12-01T22:26:40.171Z,102322.53
2022-12-01T22:31:55.148Z,102316.47
2022-12-01T22:37:10.122Z,102311.97
2022-12-01T22:42:25.195Z,102307.00
2022-12-01T22:47:40.382Z,102309.78
2022-12-01T22:52:56.430Z,102300.69
2022-12-01T22:58:12.513Z,102302.94
2022-12-01T23:03:28.202Z,102312.84
2022-12-01T23:08:43.115Z,102305.72
2022-12-01T23:13:58.195Z,102305.25
2022-12-01T23:19:13.163Z,102296.91
2022-12-01T23:24:33.482Z,102290.22
2022-12-01T23:29:48.917Z,102299.13
2022-12-01T23:35:04.171Z,102282.44
2022-12-01T23:40:19.196Z,102284.66
2022-12-01T23:45:34.144Z,102282.16
2022-12-01T23:50:49.136Z,102275.84
2022-12-01T23:56:03.916Z,102277.56
